createdAt,value
2023-05-02T00:02:04.209Z,41.47
2023-05-02T00:04:30.894Z,41.44
2023-05-02T00:06:57.637Z,41.47
2023-05-02T00:09:24.289Z,41.40
2023-05-02T00:11:51.060Z,41.46
2023-05-02T00:14:17.599Z,41.41
2023-05-02T00:16:44.397Z,41.12
2023-05-02T00:19:10.922Z,41.05
2023-05-02T00:21:37.631Z,41.30
2023-05-02T00:24:04.423Z,41.00
2023-05-02T00:26:31.052Z,41.32
2023-05-02T00:28:58.442Z,41.08
2023-05-02T00:31:25.139Z,41.01
2023-05-02T00:33:51.636Z,41.04
2023-05-02T00:36:20.146Z,40.86
2023-05-02T00:38:46.693Z,41.22
2023-05-02T00:41:14.001Z,40.89
2023-05-02T00:43:41.143Z,40.79
2023-05-02T00:46:08.447Z,40.80
2023-05-02T00:48:35.396Z,41.05
2023-05-02T00:51:08.691Z,41.05
2023-05-02T00:53:36.139Z,40.99
2023-05-02T00:56:02.890Z,40.72
2023-05-02T00:58:30.813Z,40.74
2023-05-02T01:01:12.679Z,40.63
2023-05-02T01:03:50.807Z,40.51
2023-05-02T01:06:29.693Z,40.71
2023-05-02T01:09:12.904Z,40.51
2023-05-02T01:11:58.587Z,40.66
2023-05-02T01:14:29.023Z,40.56
2023-05-02T01:16:58.843Z,40.47
2023-05-02T01:19:32.190Z,40.56
2023-05-02T01:22:01.896Z,40.45
2023-05-02T01:24:56.771Z,40.61
2023-05-02T01:27:41.772Z,40.55
2023-05-02T01:30:11.776Z,40.75
2023-05-02T01:32:41.374Z,40.40
2023-05-02T01:35:10.689Z,40.60
2023-05-02T01:37:39.694Z,40.73
2023-05-02T01:40:09.401Z,40.72
2023-05-02T01:42:38.486Z,40.75
2023-05-02T01:45:07.366Z,40.53
2023-05-02T01:47:36.698Z,40.49
2023-05-02T01:50:09.485Z,40.26
2023-05-02T01:52:37.232Z,40.29
2023-05-02T01:55:06.279Z,40.16
2023-05-02T01:57:33.137Z,40.11
2023-05-02T02:00:01.091Z,40.10
2023-05-02T02:02:29.686Z,40.36
2023-05-02T02:04:57.768Z,40.37
2023-05-02T02:07:24.573Z,40.09
2023-05-02T02:09:52.822Z,40.48
2023-05-02T02:12:32.040Z,40.42
2023-05-02T02:15:18.738Z,40.06
2023-05-02T02:17:50.366Z,40.38
2023-05-02T02:20:18.750Z,40.03
2023-05-02T02:22:49.087Z,40.21
2023-05-02T02:25:17.493Z,40.21
2023-05-02T02:27:44.239Z,40.21
2023-05-02T02:30:11.601Z,40.20
2023-05-02T02:32:38.185Z,39.87
2023-05-02T02:35:05.597Z,40.14
2023-05-02T02:37:37.700Z,40.24
2023-05-02T02:40:10.293Z,40.09
2023-05-02T02:42:56.048Z,39.94
2023-05-02T02:45:55.057Z,39.86
2023-05-02T02:48:42.950Z,39.95
2023-05-02T02:51:15.891Z,40.22
2023-05-02T02:54:26.901Z,40.13
2023-05-02T02:57:06.298Z,40.19
2023-05-02T02:59:41.838Z,40.18
2023-05-02T03:02:12.914Z,40.44
2023-05-02T03:04:42.514Z,40.96
2023-05-02T03:07:09.464Z,40.93
2023-05-02T03:09:47.335Z,40.75
2023-05-02T03:12:21.180Z,41.04
2023-05-02T03:14:49.986Z,40.96
2023-05-02T03:17:17.417Z,41.02
2023-05-02T03:19:44.051Z,41.15
2023-05-02T03:22:12.142Z,41.08
2023-05-02T03:24:39.540Z,40.74
2023-05-02T03:27:06.283Z,41.09
2023-05-02T03:29:39.857Z,41.04
2023-05-02T03:32:07.058Z,41.74
2023-05-02T03:34:35.102Z,42.00
2023-05-02T03:37:01.813Z,42.06
2023-05-02T03:39:29.445Z,42.12
2023-05-02T03:41:56.109Z,41.97
2023-05-02T03:44:24.263Z,42.01
2023-05-02T03:46:50.962Z,41.90
2023-05-02T03:49:19.550Z,42.12
2023-05-02T03:51:48.118Z,42.26
2023-05-02T03:54:19.672Z,41.80
2023-05-02T03:56:47.803Z,41.90
2023-05-02T03:59:23.123Z,41.60
2023-05-02T04:01:51.148Z,41.38
2023-05-02T04:04:23.720Z,41.02
2023-05-02T04:06:52.418Z,41.31
2023-05-02T04:09:23.530Z,41.12
2023-05-02T04:11:54.311Z,41.48
2023-05-02T04:14:21.392Z,41.50
2023-05-02T04:16:50.933Z,41.36
2023-05-02T04:19:22.882Z,41.05
2023-05-02T04:21:49.427Z,41.39
2023-05-02T04:24:17.073Z,40.96
2023-05-02T04:26:47.531Z,41.10
2023-05-02T04:29:15.165Z,41.01
2023-05-02T04:31:42.502Z,40.54
2023-05-02T04:34:10.318Z,40.75
2023-05-02T04:36:42.225Z,40.68
2023-05-02T04:39:12.483Z,40.50
2023-05-02T04:41:44.642Z,40.38
2023-05-02T04:44:11.275Z,40.54
2023-05-02T04:46:38.518Z,40.77
2023-05-02T04:49:08.531Z,40.76
2023-05-02T04:51:35.075Z,40.43
2023-05-02T04:54:01.801Z,40.48
2023-05-02T04:56:28.483Z,40.57
2023-05-02T04:58:55.164Z,40.05
2023-05-02T05:01:24.233Z,40.23
2023-05-02T05:03:51.085Z,40.13
2023-05-02T05:06:19.272Z,40.12
2023-05-02T05:08:46.551Z,39.74
2023-05-02T05:11:17.872Z,39.75
2023-05-02T05:13:44.483Z,39.77
2023-05-02T05:16:13.315Z,39.54
2023-05-02T05:18:43.000Z,39.48
2023-05-02T05:21:12.299Z,39.53
2023-05-02T05:23:39.856Z,39.41
2023-05-02T05:26:11.223Z,39.51
2023-05-02T05:28:39.669Z,39.22
2023-05-02T05:31:07.555Z,39.23
2023-05-02T05:33:35.713Z,39.67
2023-05-02T05:36:15.004Z,39.78
2023-05-02T05:38:41.737Z,40.18
2023-05-02T05:41:11.039Z,40.44
2023-05-02T05:43:41.343Z,40.46
2023-05-02T05:46:08.250Z,40.77
2023-05-02T05:48:36.606Z,40.90
2023-05-02T05:51:05.281Z,40.58
2023-05-02T05:53:32.458Z,40.68
2023-05-02T05:56:09.007Z,40.67
2023-05-02T05:58:37.354Z,40.42
2023-05-02T06:01:04.488Z,40.66
2023-05-02T06:03:32.025Z,40.58
2023-05-02T06:05:58.798Z,40.23
2023-05-02T06:08:28.550Z,39.94
2023-05-02T06:10:55.266Z,39.92
2023-05-02T06:13:22.108Z,40.34
2023-05-02T06:15:50.025Z,39.81
2023-05-02T06:18:16.852Z,39.92
2023-05-02T06:20:43.547Z,39.63
2023-05-02T06:23:10.102Z,39.56
2023-05-02T06:25:39.864Z,39.63
2023-05-02T06:28:07.111Z,39.24
2023-05-02T06:30:33.824Z,39.54
2023-05-02T06:33:00.717Z,39.29
2023-05-02T06:35:27.436Z,39.18
2023-05-02T06:37:53.966Z,39.35
2023-05-02T06:40:20.645Z,39.22
2023-05-02T06:42:47.252Z,39.04
2023-05-02T06:45:15.488Z,38.97
2023-05-02T06:47:42.147Z,38.92
2023-05-02T06:50:09.329Z,38.75
2023-05-02T06:52:35.851Z,38.81
2023-05-02T06:55:02.563Z,38.61
2023-05-02T06:57:29.150Z,38.31
2023-05-02T06:59:56.063Z,38.55
2023-05-02T07:02:22.764Z,38.71
2023-05-02T07:04:49.417Z,38.70
2023-05-02T07:07:18.800Z,38.43
2023-05-02T07:09:45.673Z,38.70
2023-05-02T07:12:12.169Z,38.95
2023-05-02T07:14:39.382Z,38.98
2023-05-02T07:17:06.459Z,39.02
2023-05-02T07:19:33.273Z,38.73
2023-05-02T07:21:59.921Z,39.02
2023-05-02T07:24:26.610Z,38.60
2023-05-02T07:26:53.122Z,38.54
2023-05-02T07:29:19.742Z,38.84
2023-05-02T07:31:46.337Z,38.99
2023-05-02T07:34:12.942Z,38.82
2023-05-02T07:36:39.743Z,39.16
2023-05-02T07:39:06.463Z,39.37
2023-05-02T07:41:33.054Z,39.73
2023-05-02T07:44:01.387Z,39.27
2023-05-02T07:46:28.121Z,39.58
2023-05-02T07:48:55.744Z,39.74
2023-05-02T07:51:22.537Z,39.92
2023-05-02T07:53:53.670Z,40.30
2023-05-02T07:56:21.205Z,40.27
2023-05-02T07:58:47.706Z,40.48
2023-05-02T08:01:14.383Z,40.56
2023-05-02T08:03:45.172Z,40.63
2023-05-02T08:06:13.197Z,41.01
2023-05-02T08:08:39.806Z,41.28
2023-05-02T08:11:06.874Z,41.25
2023-05-02T08:13:33.492Z,41.48
2023-05-02T08:16:00.370Z,41.43
2023-05-02T08:18:27.465Z,40.96
2023-05-02T08:20:56.277Z,40.89
2023-05-02T08:23:22.776Z,40.74
2023-05-02T08:25:49.565Z,40.65
2023-05-02T08:28:16.154Z,40.29
2023-05-02T08:30:45.093Z,40.12
2023-05-02T08:33:11.677Z,39.96
2023-05-02T08:35:38.299Z,39.85
2023-05-02T08:38:04.915Z,39.76
2023-05-02T08:40:41.466Z,40.00
2023-05-02T08:43:11.693Z,39.64
2023-05-02T08:45:45.394Z,39.26
2023-05-02T08:48:13.757Z,39.60
2023-05-02T08:50:43.569Z,39.34
2023-05-02T08:53:11.860Z,39.42
2023-05-02T08:55:40.502Z,39.53
2023-05-02T08:58:10.817Z,39.41
2023-05-02T09:00:42.316Z,39.31
2023-05-02T09:03:09.026Z,39.41
2023-05-02T09:05:41.585Z,39.50
2023-05-02T09:08:09.286Z,39.52
2023-05-02T09:10:39.117Z,39.34
2023-05-02T09:13:38.136Z,39.24
2023-05-02T09:16:19.993Z,39.01
2023-05-02T09:18:47.528Z,39.25
2023-05-02T09:21:22.469Z,39.16
2023-05-02T09:23:58.966Z,39.23
2023-05-02T09:26:34.435Z,39.31
2023-05-02T09:29:03.570Z,39.33
2023-05-02T09:34:19.013Z,39.15
2023-05-02T09:36:56.202Z,38.89
2023-05-02T09:39:26.105Z,39.05
2023-05-02T09:41:53.462Z,38.75
2023-05-02T09:44:22.665Z,38.77
2023-05-02T09:46:54.074Z,38.43
2023-05-02T09:49:42.970Z,38.23
2023-05-02T09:52:13.458Z,38.58
2023-05-02T09:54:40.299Z,38.06
2023-05-02T09:57:07.362Z,38.14
2023-05-02T09:59:36.922Z,38.15
2023-05-02T10:02:04.773Z,38.22
2023-05-02T10:04:32.627Z,37.85
2023-05-02T10:07:00.098Z,37.99
2023-05-02T10:09:32.092Z,38.20
2023-05-02T10:12:06.685Z,38.34
2023-05-02T10:14:41.351Z,38.66
2023-05-02T10:17:14.285Z,38.89
2023-05-02T10:19:54.304Z,39.09
2023-05-02T10:22:25.072Z,39.30
2023-05-02T10:24:53.428Z,39.47
2023-05-02T10:27:20.039Z,39.59
2023-05-02T10:29:47.634Z,38.61
2023-05-02T10:32:17.144Z,38.49
2023-05-02T10:34:44.415Z,38.26
2023-05-02T10:37:12.464Z,38.13
2023-05-02T10:39:39.229Z,38.05
2023-05-02T10:42:06.955Z,37.93
2023-05-02T10:44:37.699Z,37.81
2023-05-02T10:47:26.869Z,37.61
2023-05-02T10:49:56.729Z,37.70
2023-05-02T10:52:46.731Z,37.63
2023-05-02T10:55:19.383Z,37.42
2023-05-02T10:58:01.116Z,37.38
2023-05-02T11:00:30.286Z,37.29
2023-05-02T11:02:57.439Z,37.25
2023-05-02T11:08:20.268Z,36.99
2023-05-02T11:10:48.907Z,37.15
2023-05-02T11:13:16.184Z,37.26
2023-05-02T11:16:12.372Z,37.01
2023-05-02T11:18:58.941Z,36.71
2023-05-02T11:21:32.864Z,36.86
2023-05-02T11:24:37.138Z,36.32
2023-05-02T11:27:30.167Z,36.54
2023-05-02T11:30:00.548Z,36.31
2023-05-02T11:32:49.758Z,36.19
2023-05-02T11:35:22.983Z,36.54
2023-05-02T11:38:12.662Z,36.68
2023-05-02T11:40:39.272Z,36.65
2023-05-02T11:43:16.614Z,36.73
2023-05-02T11:45:43.775Z,36.85
2023-05-02T11:48:17.354Z,36.57
2023-05-02T11:50:58.177Z,36.61
2023-05-02T11:53:26.711Z,36.70
2023-05-02T11:55:58.176Z,36.57
2023-05-02T11:58:30.175Z,36.59
2023-05-02T12:00:57.215Z,36.69
2023-05-02T12:03:23.995Z,36.40
2023-05-02T12:05:52.328Z,36.41
2023-05-02T12:08:20.781Z,36.62
2023-05-02T12:10:47.609Z,36.55
2023-05-02T12:13:14.555Z,36.34
2023-05-02T12:15:41.983Z,36.24
2023-05-02T12:18:08.989Z,36.18
2023-05-02T12:20:38.634Z,36.32
2023-05-02T12:23:10.163Z,36.18
2023-05-02T12:25:39.179Z,36.28
2023-05-02T12:28:06.057Z,36.39
2023-05-02T12:30:33.162Z,36.31
2023-05-02T12:33:01.724Z,36.09
2023-05-02T12:35:30.341Z,36.17
2023-05-02T12:38:13.056Z,35.54
2023-05-02T12:40:57.781Z,35.55
2023-05-02T12:43:24.772Z,35.09
2023-05-02T12:46:09.733Z,35.14
2023-05-02T12:48:36.872Z,35.38
2023-05-02T12:51:03.502Z,35.61
2023-05-02T12:53:44.506Z,35.64
2023-05-02T12:56:11.901Z,35.63
2023-05-02T12:58:46.494Z,35.69
2023-05-02T13:01:15.074Z,35.44
2023-05-02T13:03:43.409Z,35.22
2023-05-02T13:06:11.079Z,35.23
2023-05-02T13:08:37.672Z,35.07
2023-05-02T13:13:32.551Z,35.35
2023-05-02T13:15:59.277Z,35.78
2023-05-02T13:18:28.159Z,36.04
2023-05-02T13:20:55.382Z,36.05
2023-05-02T13:23:22.089Z,36.08
2023-05-02T13:25:48.616Z,35.99
2023-05-02T13:28:15.424Z,35.94
2023-05-02T13:30:43.173Z,36.25
2023-05-02T13:33:09.775Z,36.46
2023-05-02T13:35:36.814Z,36.25
2023-05-02T13:38:03.954Z,36.38
2023-05-02T13:40:30.597Z,36.55
2023-05-02T13:42:57.525Z,36.41
2023-05-02T13:45:24.211Z,36.84
2023-05-02T13:47:50.831Z,37.29
2023-05-02T13:50:17.517Z,37.61
2023-05-02T13:52:44.853Z,38.65
2023-05-02T13:55:12.697Z,39.43
2023-05-02T13:57:39.264Z,40.17
2023-05-02T14:00:09.534Z,40.56
2023-05-02T14:02:36.653Z,41.20
2023-05-02T14:05:03.537Z,41.40
2023-05-02T14:07:30.515Z,41.78
2023-05-02T14:09:57.357Z,42.23
2023-05-02T14:12:24.051Z,42.31
2023-05-02T14:14:50.612Z,41.97
2023-05-02T14:17:17.184Z,41.95
2023-05-02T14:19:43.708Z,41.75
2023-05-02T14:22:10.398Z,41.95
2023-05-02T14:24:36.929Z,41.98
2023-05-02T14:27:04.688Z,42.56
2023-05-02T14:29:31.354Z,42.68
2023-05-02T14:31:58.121Z,42.86
2023-05-02T14:34:26.923Z,43.03
2023-05-02T14:36:53.661Z,43.46
2023-05-02T14:39:20.364Z,43.60
2023-05-02T14:41:47.451Z,43.15
2023-05-02T14:44:13.964Z,43.06
2023-05-02T14:46:40.641Z,42.94
2023-05-02T14:49:07.354Z,42.67
2023-05-02T14:51:33.990Z,42.83
2023-05-02T14:54:00.650Z,42.83
2023-05-02T14:56:28.157Z,42.81
2023-05-02T14:58:54.648Z,42.57
2023-05-02T15:01:22.534Z,42.75
2023-05-02T15:04:05.381Z,42.67
2023-05-02T15:06:33.847Z,42.21
2023-05-02T15:09:01.562Z,41.94
2023-05-02T15:11:28.126Z,41.45
2023-05-02T15:13:56.820Z,41.53
2023-05-02T15:16:27.120Z,41.04
2023-05-02T15:18:54.198Z,40.93
2023-05-02T15:21:23.736Z,41.12
2023-05-02T15:23:50.772Z,40.95
2023-05-02T15:26:17.571Z,40.81
2023-05-02T15:28:44.560Z,40.90
2023-05-02T15:31:11.210Z,40.62
2023-05-02T15:33:38.618Z,40.67
2023-05-02T15:36:05.404Z,40.65
2023-05-02T15:38:34.016Z,40.42
2023-05-02T15:41:00.739Z,40.50
2023-05-02T15:43:28.186Z,40.50
2023-05-02T15:48:12.613Z,40.83
2023-05-02T15:50:39.221Z,40.69
2023-05-02T15:53:05.933Z,40.92
2023-05-02T15:55:32.572Z,40.57
2023-05-02T15:57:59.211Z,40.95
2023-05-02T16:00:26.671Z,40.41
2023-05-02T16:02:53.337Z,40.62
2023-05-02T16:05:20.340Z,40.41
2023-05-02T16:07:46.874Z,40.22
2023-05-02T16:10:13.669Z,40.21
2023-05-02T16:12:40.186Z,40.17
2023-05-02T16:15:08.275Z,40.17
2023-05-02T16:17:34.847Z,40.35
2023-05-02T16:20:02.597Z,40.58
2023-05-02T16:22:29.495Z,40.77
2023-05-02T16:24:56.315Z,40.81
2023-05-02T16:27:23.582Z,40.69
2023-05-02T16:29:50.978Z,40.60
2023-05-02T16:32:17.840Z,40.69
2023-05-02T16:34:44.378Z,40.45
2023-05-02T16:37:11.458Z,40.63
2023-05-02T16:39:39.902Z,40.59
2023-05-02T16:44:32.843Z,40.30
2023-05-02T16:46:59.435Z,40.63
2023-05-02T16:49:29.108Z,40.79
2023-05-02T16:51:56.063Z,40.92
2023-05-02T16:54:22.738Z,40.99
2023-05-02T16:56:49.285Z,40.99
2023-05-02T16:59:16.045Z,40.94
2023-05-02T17:01:42.669Z,41.02
2023-05-02T17:04:09.838Z,40.97
2023-05-02T17:06:36.387Z,40.80
2023-05-02T17:09:04.018Z,40.64
2023-05-02T17:11:30.625Z,40.65
2023-05-02T17:13:57.197Z,40.45
2023-05-02T17:16:23.898Z,40.34
2023-05-02T17:18:50.926Z,40.34
2023-05-02T17:21:17.549Z,40.38
2023-05-02T17:23:44.633Z,40.28
2023-05-02T17:26:16.879Z,40.27
2023-05-02T17:28:44.465Z,40.17
2023-05-02T17:31:11.394Z,40.18
2023-05-02T17:33:37.984Z,40.19
2023-05-02T17:36:07.338Z,40.21
2023-05-02T17:38:33.927Z,40.32
2023-05-02T17:41:00.446Z,40.05
2023-05-02T17:43:27.014Z,40.47
2023-05-02T17:45:53.629Z,40.27
2023-05-02T17:48:20.325Z,40.31
2023-05-02T17:50:46.896Z,40.12
2023-05-02T17:53:15.443Z,40.37
2023-05-02T17:55:42.282Z,40.37
2023-05-02T17:58:08.991Z,40.46
2023-05-02T18:00:35.552Z,40.64
2023-05-02T18:03:02.601Z,40.30
2023-05-02T18:05:29.339Z,40.66
2023-05-02T18:07:56.193Z,40.45
2023-05-02T18:10:22.715Z,40.49
2023-05-02T18:12:49.567Z,40.57
2023-05-02T18:15:16.064Z,40.46
2023-05-02T18:17:42.742Z,40.56
2023-05-02T18:20:12.512Z,40.67
2023-05-02T18:22:39.077Z,40.82
2023-05-02T18:25:06.256Z,40.51
2023-05-02T18:27:33.470Z,40.69
2023-05-02T18:30:00.099Z,40.47
2023-05-02T18:32:26.954Z,40.66
2023-05-02T18:34:56.272Z,40.35
2023-05-02T18:37:31.275Z,40.48
2023-05-02T18:39:59.038Z,40.78
2023-05-02T18:42:27.994Z,40.33
2023-05-02T18:44:58.778Z,40.62
2023-05-02T18:47:25.748Z,40.42
2023-05-02T18:49:56.337Z,40.44
2023-05-02T18:52:26.178Z,40.45
2023-05-02T18:54:55.195Z,40.41
2023-05-02T18:57:21.885Z,40.42
2023-05-02T18:59:48.497Z,40.49
2023-05-02T19:02:18.617Z,40.32
2023-05-02T19:04:45.573Z,40.29
2023-05-02T19:07:12.794Z,40.55
2023-05-02T19:09:42.990Z,40.43
2023-05-02T19:12:09.726Z,40.41
2023-05-02T19:14:39.525Z,40.57
2023-05-02T19:17:06.618Z,40.63
2023-05-02T19:19:33.213Z,40.64
2023-05-02T19:22:00.012Z,40.53
2023-05-02T19:24:26.934Z,40.68
2023-05-02T19:26:53.674Z,40.38
2023-05-02T19:29:20.672Z,40.65
2023-05-02T19:31:47.323Z,40.67
2023-05-02T19:34:13.842Z,40.69
2023-05-02T19:36:40.515Z,40.65
2023-05-02T19:39:07.783Z,40.43
2023-05-02T19:41:34.787Z,40.55
2023-05-02T19:44:04.447Z,40.53
2023-05-02T19:46:31.211Z,41.14
2023-05-02T19:48:57.924Z,41.63
2023-05-02T19:51:29.250Z,42.01
2023-05-02T19:53:58.620Z,42.68
2023-05-02T19:56:27.400Z,42.82
2023-05-02T19:58:54.842Z,43.12
2023-05-02T20:01:21.558Z,43.55
2023-05-02T20:03:48.313Z,43.52
2023-05-02T20:06:15.099Z,43.98
2023-05-02T20:08:41.788Z,44.00
2023-05-02T20:11:08.513Z,44.17
2023-05-02T20:13:35.038Z,44.30
2023-05-02T20:16:04.694Z,44.58
2023-05-02T20:18:31.491Z,44.50
2023-05-02T20:20:58.381Z,44.92
2023-05-02T20:23:24.923Z,44.78
2023-05-02T20:25:51.587Z,45.01
2023-05-02T20:28:18.103Z,44.94
2023-05-02T20:30:44.721Z,45.08
2023-05-02T20:33:16.057Z,44.95
2023-05-02T20:35:43.270Z,44.86
2023-05-02T20:38:09.981Z,45.13
2023-05-02T20:40:42.798Z,45.12
2023-05-02T20:43:09.449Z,44.97
2023-05-02T20:45:36.049Z,45.01
2023-05-02T20:48:03.107Z,44.81
2023-05-02T20:50:29.720Z,44.66
2023-05-02T20:52:56.762Z,44.69
2023-05-02T20:55:24.257Z,44.71
2023-05-02T20:57:52.798Z,44.57
2023-05-02T21:00:21.859Z,44.48
2023-05-02T21:02:48.460Z,44.52
2023-05-02T21:05:15.616Z,44.17
2023-05-02T21:07:42.275Z,44.05
2023-05-02T21:10:10.842Z,44.16
2023-05-02T21:12:37.384Z,44.05
2023-05-02T21:15:04.275Z,44.24
2023-05-02T21:17:30.935Z,43.95
2023-05-02T21:19:57.902Z,43.67
2023-05-02T21:22:24.490Z,43.83
2023-05-02T21:24:51.226Z,43.73
2023-05-02T21:27:17.987Z,43.75
2023-05-02T21:29:44.764Z,43.54
2023-05-02T21:32:11.478Z,43.64
2023-05-02T21:34:38.274Z,43.89
2023-05-02T21:37:04.932Z,43.78
2023-05-02T21:39:31.623Z,43.86
2023-05-02T21:41:58.221Z,43.63
2023-05-02T21:44:24.834Z,43.65
2023-05-02T21:46:51.620Z,43.42
2023-05-02T21:49:18.168Z,43.47
2023-05-02T21:51:45.031Z,43.64
2023-05-02T21:54:11.660Z,43.62
2023-05-02T21:56:38.479Z,43.67
2023-05-02T21:59:05.019Z,43.67
2023-05-02T22:01:31.631Z,43.44
2023-05-02T22:03:58.547Z,43.60
2023-05-02T22:06:25.316Z,43.45
2023-05-02T22:08:52.792Z,43.56
2023-05-02T22:11:21.509Z,43.38
2023-05-02T22:13:48.411Z,43.51
2023-05-02T22:16:15.255Z,43.32
2023-05-02T22:18:46.644Z,43.15
2023-05-02T22:21:13.297Z,43.32
2023-05-02T22:23:39.961Z,43.19
2023-05-02T22:26:06.565Z,43.39
2023-05-02T22:28:33.358Z,43.28
2023-05-02T22:30:59.964Z,43.32
2023-05-02T22:33:26.757Z,43.27
2023-05-02T22:35:53.715Z,43.29
2023-05-02T22:38:20.263Z,43.14
2023-05-02T22:40:46.855Z,43.22
2023-05-02T22:43:13.373Z,43.61
2023-05-02T22:45:41.631Z,44.12
2023-05-02T22:48:08.244Z,44.33
2023-05-02T22:50:34.885Z,44.72
2023-05-02T22:53:03.811Z,44.98
2023-05-02T22:55:30.722Z,44.99
2023-05-02T22:57:58.017Z,45.00
2023-05-02T23:00:25.670Z,45.06
2023-05-02T23:02:52.311Z,45.03
2023-05-02T23:05:19.467Z,44.92
2023-05-02T23:07:46.196Z,45.17
2023-05-02T23:10:12.768Z,44.81
2023-05-02T23:12:43.216Z,44.71
2023-05-02T23:15:10.363Z,44.57
2023-05-02T23:17:41.256Z,44.58
2023-05-02T23:20:12.628Z,44.53
2023-05-02T23:22:46.048Z,44.54
2023-05-02T23:25:14.925Z,44.34
2023-05-02T23:27:41.465Z,44.40
2023-05-02T23:30:08.706Z,44.29
2023-05-02T23:32:35.480Z,44.12
2023-05-02T23:35:03.240Z,44.06
2023-05-02T23:37:29.803Z,44.12
2023-05-02T23:39:58.136Z,43.87
2023-05-02T23:42:24.735Z,43.92
2023-05-02T23:44:53.631Z,44.06
2023-05-02T23:47:21.935Z,43.97
2023-05-02T23:49:48.577Z,43.88
2023-05-02T23:52:15.062Z,43.89
2023-05-02T23:54:41.928Z,43.72
2023-05-02T23:57:09.239Z,43.61
2023-05-02T23:59:35.887Z,43.71
